Time;durP1;ratioP1;P1;durP2;ratioP2;P2;SDS_P1;SDS_P2;PMS_P1;PMS_P2;Temp;Humidity;BMP_temperature;BMP_pressure;BME280_temperature;BME280_humidity;BME280_pressure;Samples;Min_cycle;Max_cycle;Signal;HPM_P1;HPM_P2
2023/12/20 00:00:58;;;;;;;1.90;0.63;;;;;;;8.84;100.00;100229.50;4931732;29;20085;-69
2023/12/20 00:03:24;;;;;;;1.45;1.15;;;;;;;8.93;100.00;100232.72;4947990;28;20648;-69
2023/12/20 00:05:49;;;;;;;0.38;0.38;;;;;;;8.92;100.00;100231.16;4929491;29;20099;-69
2023/12/20 00:08:15;;;;;;;2.70;0.60;;;;;;;8.95;100.00;100227.78;4958204;28;20049;-69
2023/12/20 00:10:40;;;;;;;3.92;0.70;;;;;;;8.87;100.00;100228.78;4930385;29;20063;-69
2023/12/20 00:13:07;;;;;;;1.58;0.80;;;;;;;8.88;100.00;100219.56;4928717;29;20040;-69
2023/12/20 00:15:34;;;;;;;13.70;0.70;;;;;;;8.73;100.00;100225.78;4930650;29;20035;-69
2023/12/20 00:17:59;;;;;;;0.40;0.40;;;;;;;8.72;100.00;100224.25;4933993;29;20043;-69
2023/12/20 00:20:25;;;;;;;0.65;0.65;;;;;;;8.78;100.00;100227.44;4962767;28;20487;-69
2023/12/20 00:22:50;;;;;;;2.22;0.47;;;;;;;8.83;100.00;100235.97;4932791;29;20035;-69
2023/12/20 00:25:15;;;;;;;0.60;0.40;;;;;;;8.68;99.94;100222.63;4963414;28;20770;-69
2023/12/20 00:27:41;;;;;;;0.60;0.52;;;;;;;8.70;100.00;100223.03;4934105;28;20051;-69
2023/12/20 00:30:07;;;;;;;9.10;0.80;;;;;;;8.66;100.00;100224.88;4933466;29;20039;-69
2023/12/20 00:32:33;;;;;;;0.60;0.60;;;;;;;8.60;100.00;100220.91;4932242;29;20036;-69
2023/12/20 00:34:58;;;;;;;1.65;0.68;;;;;;;8.75;99.86;100217.41;4933218;29;20043;-69
2023/12/20 00:37:24;;;;;;;0.68;0.60;;;;;;;8.66;100.00;100214.91;4933739;29;20070;-68
2023/12/20 00:39:49;;;;;;;0.73;0.70;;;;;;;8.53;99.94;100216.19;4933491;29;20040;-69
2023/12/20 00:42:14;;;;;;;0.38;0.38;;;;;;;8.67;100.00;100213.78;4933575;29;20063;-69
2023/12/20 00:44:40;;;;;;;1.95;0.52;;;;;;;8.64;100.00;100206.44;4964900;28;20067;-69
2023/12/20 00:47:05;;;;;;;0.90;0.40;;;;;;;8.71;99.15;100216.56;4948755;28;20039;-69
2023/12/20 00:49:31;;;;;;;2.20;1.10;;;;;;;8.56;100.00;100201.25;4934425;29;20073;-68
2023/12/20 00:51:56;;;;;;;0.30;0.30;;;;;;;8.53;100.00;100205.44;4948313;28;20415;-69
2023/12/20 00:54:22;;;;;;;1.13;0.38;;;;;;;8.65;100.00;100202.63;4936541;28;20397;-69
2023/12/20 00:56:47;;;;;;;0.82;0.43;;;;;;;8.66;100.00;100189.97;4946644;29;20039;-69
2023/12/20 00:59:13;;;;;;;0.55;0.40;;;;;;;8.71;99.24;100187.78;4930791;29;20598;-69
2023/12/20 01:01:38;;;;;;;5.10;0.63;;;;;;;8.71;99.56;100192.41;4929208;29;20035;-69
2023/12/20 01:04:04;;;;;;;0.88;0.38;;;;;;;8.76;99.80;100192.09;4933878;29;20032;-69
2023/12/20 01:06:29;;;;;;;0.20;0.20;;;;;;;8.84;99.53;100183.06;4932351;29;20047;-69
2023/12/20 01:08:55;;;;;;;0.73;0.32;;;;;;;8.64;99.31;100200.28;4947986;28;20411;-69
2023/12/20 01:11:20;;;;;;;1.00;0.77;;;;;;;8.79;100.00;100177.97;4932639;28;20040;-69
2023/12/20 01:13:46;;;;;;;1.27;0.88;;;;;;;8.76;99.74;100189.41;4947598;28;21189;-69
2023/12/20 01:16:12;;;;;;;0.47;0.40;;;;;;;8.80;100.00;100193.75;4933458;29;20032;-69
2023/12/20 01:18:38;;;;;;;3.15;1.13;;;;;;;8.83;100.00;100189.56;4932519;29;20035;-69
2023/12/20 01:21:04;;;;;;;0.30;0.30;;;;;;;8.81;99.76;100195.28;4930561;29;20107;-69
2023/12/20 01:23:30;;;;;;;2.60;1.13;;;;;;;8.79;100.00;100189.50;4930888;29;20123;-69
2023/12/20 01:25:55;;;;;;;2.92;0.30;;;;;;;8.83;100.00;100187.66;4933300;29;20122;-69
2023/12/20 01:28:21;;;;;;;0.40;0.40;;;;;;;8.83;100.00;100174.22;4933033;29;20110;-69
2023/12/20 01:30:46;;;;;;;2.50;0.77;;;;;;;8.89;99.25;100182.75;4945406;28;20047;-69
2023/12/20 01:33:12;;;;;;;0.30;0.30;;;;;;;8.89;98.95;100174.72;4933201;29;20035;-68
2023/12/20 01:35:37;;;;;;;0.30;0.30;;;;;;;8.82;98.82;100179.97;4933025;29;20043;-69
2023/12/20 01:38:03;;;;;;;0.32;0.30;;;;;;;8.65;99.21;100175.03;4947346;28;20059;-69
2023/12/20 01:40:28;;;;;;;1.75;0.52;;;;;;;8.72;99.43;100181.31;4961629;28;20031;-69
2023/12/20 01:43:01;;;;;;;0.35;0.35;;;;;;;8.63;99.21;100183.41;4931910;29;20487;-68
2023/12/20 01:45:27;;;;;;;0.65;0.30;;;;;;;8.71;99.14;100178.97;4931854;29;20062;-69
2023/12/20 01:47:54;;;;;;;0.20;0.20;;;;;;;8.59;99.24;100179.91;4947223;28;20059;-68
2023/12/20 01:50:21;;;;;;;8.70;0.50;;;;;;;8.60;98.85;100175.28;4960535;28;20032;-69
2023/12/20 01:52:47;;;;;;;0.98;0.20;;;;;;;8.51;99.05;100159.41;4931278;29;20090;-69
2023/12/20 01:55:15;;;;;;;4.20;0.57;;;;;;;8.59;98.59;100165.69;4930665;29;20044;-68
2023/12/20 01:57:44;;;;;;;1.65;0.77;;;;;;;8.65;97.80;100164.28;4932623;29;20027;-69
2023/12/20 02:00:12;;;;;;;0.20;0.20;;;;;;;8.54;98.41;100164.06;4931857;29;20554;-69
2023/12/20 02:02:39;;;;;;;2.40;0.75;;;;;;;8.65;98.01;100157.00;4927970;29;20040;-69
2023/12/20 02:05:06;;;;;;;1.73;0.32;;;;;;;8.53;98.24;100151.78;4931669;29;20039;-69
2023/12/20 02:07:31;;;;;;;0.20;0.20;;;;;;;8.50;98.30;100149.78;4930168;29;20131;-69
2023/12/20 02:09:57;;;;;;;1.85;0.50;;;;;;;8.57;98.38;100158.00;4930702;29;20477;-69
2023/12/20 02:12:22;;;;;;;1.75;0.55;;;;;;;8.64;98.71;100155.44;4930321;29;20036;-69
2023/12/20 02:14:49;;;;;;;0.32;0.32;;;;;;;8.63;98.43;100155.81;4947696;28;20035;-69
2023/12/20 02:17:15;;;;;;;0.38;0.38;;;;;;;8.60;98.36;100154.59;4944070;28;20044;-69
2023/12/20 02:19:41;;;;;;;2.25;0.50;;;;;;;8.61;97.97;100142.75;4944607;28;20092;-69
2023/12/20 02:22:11;;;;;;;0.50;0.50;;;;;;;8.55;98.52;100138.00;4933183;29;20028;-69
2023/12/20 02:24:36;;;;;;;3.55;0.55;;;;;;;8.32;99.00;100132.56;4931132;29;20031;-69
2023/12/20 02:27:03;;;;;;;3.30;0.85;;;;;;;8.39;99.19;100127.34;4947025;28;20035;-69
2023/12/20 02:29:28;;;;;;;1.23;1.05;;;;;;;8.35;99.58;100123.81;4933563;29;20042;-69
2023/12/20 02:31:54;;;;;;;0.47;0.47;;;;;;;8.30;99.25;100120.63;4933997;29;20040;-68
2023/12/20 02:34:19;;;;;;;0.38;0.38;;;;;;;8.44;98.97;100119.00;4931910;28;20031;-69
2023/12/20 02:36:44;;;;;;;0.30;0.30;;;;;;;8.44;98.28;100119.00;4931542;29;20039;-69
2023/12/20 02:39:10;;;;;;;0.20;0.20;;;;;;;8.47;98.37;100121.00;4947107;28;20036;-69
2023/12/20 02:41:35;;;;;;;3.45;0.65;;;;;;;8.17;99.42;100115.38;4930488;29;20062;-69
2023/12/20 02:44:02;;;;;;;0.40;0.40;;;;;;;8.40;99.32;100128.13;4931130;29;20147;-69
2023/12/20 02:46:27;;;;;;;0.35;0.35;;;;;;;8.43;99.08;100130.09;4933156;29;20106;-69
2023/12/20 02:48:53;;;;;;;1.40;0.43;;;;;;;8.46;98.99;100122.09;4930439;29;20072;-69
2023/12/20 02:51:18;;;;;;;0.52;0.40;;;;;;;8.46;99.27;100116.75;4934443;29;20035;-68
2023/12/20 02:53:45;;;;;;;2.13;0.60;;;;;;;8.55;99.17;100114.66;4932333;29;20036;-68
2023/12/20 02:56:10;;;;;;;0.30;0.30;;;;;;;8.51;99.01;100110.31;4932824;29;20031;-69
2023/12/20 02:58:35;;;;;;;6.18;0.70;;;;;;;8.48;99.53;100106.44;4931120;29;20407;-69
2023/12/20 03:01:01;;;;;;;0.40;0.40;;;;;;;8.55;98.76;100100.44;4933848;29;20094;-69
2023/12/20 03:03:26;;;;;;;0.30;0.30;;;;;;;8.50;99.25;100101.50;4944881;28;20486;-69
2023/12/20 03:05:52;;;;;;;0.75;0.50;;;;;;;8.67;98.69;100102.97;4933581;29;20040;-68
2023/12/20 03:08:17;;;;;;;0.40;0.40;;;;;;;8.59;97.92;100091.34;4933786;29;20038;-68
2023/12/20 03:10:42;;;;;;;0.20;0.20;;;;;;;8.61;98.42;100091.75;4948352;28;20502;-69
2023/12/20 03:13:08;;;;;;;1.30;1.15;;;;;;;8.69;97.61;100093.41;4930881;28;20099;-69
2023/12/20 03:15:34;;;;;;;0.40;0.40;;;;;;;8.60;97.71;100081.34;4932211;29;20498;-69
2023/12/20 03:18:00;;;;;;;0.30;0.30;;;;;;;8.58;97.84;100084.41;4949777;28;20032;-69
2023/12/20 03:20:26;;;;;;;0.38;0.38;;;;;;;8.58;97.79;100078.25;4960849;28;20732;-69
2023/12/20 03:22:51;;;;;;;7.03;1.40;;;;;;;8.58;98.08;100073.66;4931076;29;20056;-69
2023/12/20 03:25:17;;;;;;;1.48;0.55;;;;;;;8.40;98.28;100069.88;4935071;29;20251;-68
2023/12/20 03:27:42;;;;;;;0.45;0.45;;;;;;;8.35;99.24;100061.34;4960442;28;20040;-69
2023/12/20 03:30:08;;;;;;;1.65;0.60;;;;;;;8.42;99.08;100061.47;4945567;28;20038;-68
2023/12/20 03:32:33;;;;;;;0.50;0.32;;;;;;;8.35;99.14;100064.00;4936272;28;20054;-68
2023/12/20 03:34:59;;;;;;;0.47;0.47;;;;;;;8.27;98.79;100065.78;4941996;28;20062;-68
2023/12/20 03:37:24;;;;;;;2.22;0.68;;;;;;;8.13;100.00;100060.09;4929566;29;20406;-69
2023/12/20 03:39:50;;;;;;;0.90;0.63;;;;;;;8.25;99.51;100060.00;4932108;29;20039;-68
2023/12/20 03:42:15;;;;;;;3.55;0.70;;;;;;;8.29;99.06;100066.22;4931803;29;20047;-69
2023/12/20 03:44:41;;;;;;;0.30;0.30;;;;;;;8.37;99.14;100057.16;4946278;28;20122;-69
2023/12/20 03:47:06;;;;;;;0.85;0.68;;;;;;;8.52;98.32;100060.88;4932398;29;20034;-69
2023/12/20 03:49:32;;;;;;;0.95;0.40;;;;;;;8.47;97.68;100064.66;4929773;29;20039;-69
2023/12/20 03:51:57;;;;;;;4.00;0.70;;;;;;;8.35;98.23;100053.28;4934557;29;20035;-69
2023/12/20 03:54:23;;;;;;;0.35;0.32;;;;;;;8.28;99.21;100045.91;4932115;29;20343;-69
2023/12/20 03:56:49;;;;;;;2.72;1.48;;;;;;;8.39;99.10;100046.09;4964135;28;20060;-69
2023/12/20 03:59:14;;;;;;;1.67;0.57;;;;;;;8.38;98.09;100042.63;4934190;29;20122;-69
2023/12/20 04:01:44;;;;;;;0.80;0.80;;;;;;;8.44;97.97;100041.19;4952776;28;20067;-68
2023/12/20 04:04:10;;;;;;;0.77;0.40;;;;;;;8.27;98.94;100035.50;4952887;28;20051;-68
2023/12/20 04:06:36;;;;;;;1.33;0.55;;;;;;;8.41;98.65;100030.41;4930672;29;20043;-69
2023/12/20 04:09:01;;;;;;;1.33;0.73;;;;;;;8.23;98.37;100023.91;4934213;29;20499;-69
2023/12/20 04:11:26;;;;;;;3.80;0.68;;;;;;;8.32;99.31;100027.19;4933941;29;20410;-69
2023/12/20 04:13:52;;;;;;;0.98;0.73;;;;;;;8.41;98.10;100033.88;4934159;29;20093;-68
2023/12/20 04:16:18;;;;;;;2.22;0.55;;;;;;;8.51;98.02;100021.78;4936691;29;20449;-68
2023/12/20 04:18:43;;;;;;;0.30;0.20;;;;;;;8.39;98.47;100017.34;4934398;29;20518;-68
2023/12/20 04:21:08;;;;;;;10.80;0.60;;;;;;;8.43;98.60;100026.25;4933388;29;20491;-69
2023/12/20 04:23:34;;;;;;;5.93;0.50;;;;;;;8.33;98.98;100015.31;4949342;28;20028;-68
2023/12/20 04:25:59;;;;;;;0.32;0.32;;;;;;;8.54;98.27;100013.00;4950004;28;20388;-68
2023/12/20 04:28:25;;;;;;;0.90;0.40;;;;;;;8.38;98.66;100007.75;4934789;29;20031;-69
2023/12/20 04:30:50;;;;;;;1.00;0.52;;;;;;;8.40;99.31;100016.22;4933896;29;20043;-68
2023/12/20 04:33:16;;;;;;;0.20;0.20;;;;;;;8.53;98.38;100012.25;4933634;29;20039;-68
2023/12/20 04:35:42;;;;;;;0.50;0.50;;;;;;;8.39;99.00;100000.47;4935243;29;20404;-68
2023/12/20 04:38:08;;;;;;;1.67;0.43;;;;;;;8.29;100.00;99996.47;4935618;29;20518;-69
2023/12/20 04:40:34;;;;;;;0.60;0.40;;;;;;;8.53;98.54;99998.06;4934679;29;20047;-68
2023/12/20 04:42:59;;;;;;;1.30;0.52;;;;;;;8.54;98.79;99986.97;4933834;29;20032;-69
2023/12/20 04:45:25;;;;;;;0.82;0.82;;;;;;;8.42;98.67;99987.13;4935761;28;20422;-68
2023/12/20 04:47:51;;;;;;;2.67;0.70;;;;;;;8.64;97.65;99982.91;4935266;29;20171;-68
2023/12/20 04:50:17;;;;;;;0.52;0.50;;;;;;;8.71;96.68;99972.31;4934455;29;20167;-69
2023/12/20 04:52:42;;;;;;;5.05;0.70;;;;;;;8.38;98.89;99975.56;4930975;29;21339;-68
2023/12/20 04:55:08;;;;;;;4.07;1.02;;;;;;;8.56;98.52;99967.81;4938071;29;20035;-68
2023/12/20 04:57:34;;;;;;;4.47;1.08;;;;;;;8.52;98.12;99962.38;4937260;29;20050;-69
2023/12/20 05:00:00;;;;;;;1.65;1.02;;;;;;;8.48;98.52;99958.88;4938686;29;20043;-68
2023/12/20 05:02:25;;;;;;;3.45;1.20;;;;;;;8.55;97.74;99971.63;4933472;28;20033;-69
2023/12/20 05:04:51;;;;;;;2.65;1.35;;;;;;;8.46;98.63;99958.44;4953078;28;20036;-68
2023/12/20 05:07:16;;;;;;;2.17;1.17;;;;;;;8.56;98.00;99954.41;4952797;28;20030;-68
2023/12/20 05:09:42;;;;;;;1.05;0.73;;;;;;;8.32;98.54;99974.31;4946376;28;20062;-69
2023/12/20 05:12:08;;;;;;;1.50;0.90;;;;;;;8.40;99.17;99965.25;4933436;29;20044;-69
2023/12/20 05:14:33;;;;;;;2.28;2.05;;;;;;;8.42;100.00;99962.97;4934702;29;20035;-69
2023/12/20 05:16:58;;;;;;;3.22;0.75;;;;;;;8.45;99.05;99966.88;4936569;29;20035;-68
2023/12/20 05:19:24;;;;;;;2.85;0.90;;;;;;;8.35;99.77;99967.44;4934194;29;20604;-68
2023/12/20 05:21:50;;;;;;;2.30;0.90;;;;;;;8.41;99.87;99960.66;4948835;28;20023;-69
2023/12/20 05:24:16;;;;;;;0.70;0.60;;;;;;;8.44;99.68;99944.63;4964693;28;20418;-68
2023/12/20 05:26:41;;;;;;;3.65;0.98;;;;;;;8.52;98.91;99945.50;4932344;29;20035;-69
2023/12/20 05:29:06;;;;;;;4.32;1.00;;;;;;;8.54;98.40;99954.75;4935034;29;20047;-69
2023/12/20 05:31:32;;;;;;;1.10;0.80;;;;;;;8.62;98.40;99951.06;4932899;29;20047;-68
2023/12/20 05:33:58;;;;;;;1.35;1.02;;;;;;;8.70;97.69;99960.78;4951031;28;20134;-68
2023/12/20 05:36:23;;;;;;;3.40;0.98;;;;;;;8.65;97.14;99949.59;4933849;29;20038;-69
2023/12/20 05:38:49;;;;;;;6.97;1.52;;;;;;;8.64;98.21;99958.75;4939904;29;20518;-69
2023/12/20 05:41:15;;;;;;;2.50;0.98;;;;;;;8.48;99.20;99960.81;4950149;28;20122;-69
2023/12/20 05:43:40;;;;;;;2.30;1.05;;;;;;;8.53;99.28;99950.53;4935239;28;20518;-69
2023/12/20 05:46:05;;;;;;;1.48;1.15;;;;;;;8.69;98.44;99956.53;4935683;29;20039;-68
2023/12/20 05:48:31;;;;;;;5.78;1.23;;;;;;;8.72;97.38;99958.53;4934808;28;20029;-69
2023/12/20 05:50:57;;;;;;;2.72;1.38;;;;;;;8.71;97.95;99948.91;4932530;29;20043;-68
2023/12/20 05:53:22;;;;;;;1.05;0.85;;;;;;;8.74;97.25;99945.50;4936581;29;20090;-69
2023/12/20 05:55:48;;;;;;;2.47;1.13;;;;;;;8.59;98.17;99941.06;4933890;29;20458;-69
2023/12/20 05:58:13;;;;;;;2.63;1.20;;;;;;;8.64;98.04;99948.81;4934207;29;20401;-68
2023/12/20 06:00:39;;;;;;;1.13;0.80;;;;;;;8.49;99.25;99943.56;4963659;28;20047;-69
2023/12/20 06:03:04;;;;;;;0.85;0.80;;;;;;;8.48;99.33;99934.72;4934899;29;20039;-69
2023/12/20 06:05:30;;;;;;;1.67;0.82;;;;;;;8.61;99.22;99941.47;4934386;29;20031;-68
2023/12/20 06:08:01;;;;;;;2.92;0.95;;;;;;;8.55;99.36;99944.81;4932279;29;20031;-68
2023/12/20 06:10:27;;;;;;;2.30;1.15;;;;;;;8.57;100.00;99937.97;4933077;29;20046;-69
2023/12/20 06:12:53;;;;;;;2.00;0.90;;;;;;;8.39;99.95;99936.09;4930979;29;20395;-69
2023/12/20 06:15:19;;;;;;;4.35;1.35;;;;;;;8.55;100.00;99932.19;4931217;29;20039;-68
2023/12/20 06:17:46;;;;;;;1.15;0.73;;;;;;;8.63;99.57;99919.66;4931230;29;20090;-69
2023/12/20 06:20:12;;;;;;;0.70;0.70;;;;;;;8.52;100.00;99942.81;4929268;29;20415;-69
2023/12/20 06:22:38;;;;;;;0.75;0.65;;;;;;;8.51;100.00;99928.66;4943328;28;20045;-68
2023/12/20 06:25:05;;;;;;;1.10;0.77;;;;;;;8.34;100.00;99929.13;4930340;29;20578;-69
2023/12/20 06:27:32;;;;;;;1.60;0.88;;;;;;;8.53;99.22;99921.03;4930165;29;20474;-69
2023/12/20 06:29:58;;;;;;;0.68;0.63;;;;;;;8.61;99.30;99917.31;4944105;28;20035;-69
2023/12/20 06:32:24;;;;;;;0.80;0.57;;;;;;;8.60;98.94;99912.28;4935301;28;20039;-68
2023/12/20 06:34:49;;;;;;;2.45;0.88;;;;;;;8.51;99.26;99915.25;4933738;29;20418;-69
2023/12/20 06:37:15;;;;;;;1.13;0.80;;;;;;;8.41;99.56;99912.38;4933434;28;20046;-69
2023/12/20 06:39:41;;;;;;;1.98;1.00;;;;;;;8.50;99.22;99905.63;4932219;29;20443;-68
2023/12/20 06:42:06;;;;;;;0.77;0.63;;;;;;;8.55;98.64;99904.56;4930358;29;20586;-69
2023/12/20 06:44:31;;;;;;;6.70;1.15;;;;;;;8.41;99.34;99901.63;4935111;29;20035;-69
2023/12/20 06:46:57;;;;;;;2.40;0.93;;;;;;;8.59;98.79;99902.72;4933182;29;20417;-69
2023/12/20 06:49:23;;;;;;;0.70;0.70;;;;;;;8.47;97.90;99898.31;4938231;29;20031;-68
2023/12/20 06:51:48;;;;;;;1.35;0.52;;;;;;;8.49;98.66;99892.56;4931656;29;20039;-69
2023/12/20 06:54:14;;;;;;;1.05;0.82;;;;;;;8.55;98.54;99891.94;4933553;29;20180;-69
2023/12/20 06:56:41;;;;;;;0.63;0.60;;;;;;;8.32;98.71;99891.16;4932307;29;20042;-69
2023/12/20 06:59:06;;;;;;;9.73;1.30;;;;;;;8.39;98.71;99885.91;4962457;28;20075;-69
2023/12/20 07:01:32;;;;;;;2.35;1.05;;;;;;;8.46;99.25;99890.63;4928734;29;20036;-68
2023/12/20 07:03:57;;;;;;;1.17;0.80;;;;;;;8.25;99.42;99876.84;4928571;29;20061;-68
2023/12/20 07:06:23;;;;;;;0.45;0.45;;;;;;;8.36;100.00;99878.59;4928951;29;20046;-68
2023/12/20 07:08:49;;;;;;;0.55;0.55;;;;;;;8.32;99.43;99875.06;4949794;28;20592;-69
2023/12/20 07:11:14;;;;;;;0.60;0.60;;;;;;;8.44;99.47;99871.44;4926545;29;20035;-69
2023/12/20 07:13:39;;;;;;;1.08;1.00;;;;;;;8.64;98.80;99868.28;4927522;29;20127;-68
2023/12/20 07:16:05;;;;;;;6.28;1.92;;;;;;;8.58;98.67;99864.38;4940111;29;20050;-69
2023/12/20 07:18:30;;;;;;;1.60;0.65;;;;;;;8.51;97.66;99872.31;4956365;28;20031;-69
2023/12/20 07:20:56;;;;;;;2.17;0.60;;;;;;;8.53;98.75;99871.94;4927006;29;20122;-69
2023/12/20 07:23:21;;;;;;;4.78;0.60;;;;;;;8.31;100.00;99875.41;4940511;28;20040;-68
2023/12/20 07:25:47;;;;;;;0.43;0.40;;;;;;;8.54;98.48;99879.63;4927427;29;20039;-68
2023/12/20 07:28:13;;;;;;;0.82;0.80;;;;;;;8.50;98.07;99889.53;4929874;29;20109;-69
2023/12/20 07:30:39;;;;;;;1.02;0.85;;;;;;;8.66;97.21;99886.72;4946292;28;20032;-68
2023/12/20 07:33:05;;;;;;;0.40;0.40;;;;;;;8.80;96.85;99878.88;4931434;29;20039;-68
2023/12/20 07:35:32;;;;;;;2.17;0.88;;;;;;;8.71;97.43;99873.75;4930932;29;20039;-69
2023/12/20 07:37:58;;;;;;;0.88;0.65;;;;;;;8.61;97.88;99874.38;4930872;29;20027;-68
2023/12/20 07:40:24;;;;;;;9.65;2.28;;;;;;;8.40;98.84;99868.66;4948219;29;20114;-70
2023/12/20 07:42:49;;;;;;;2.35;0.82;;;;;;;8.65;98.88;99861.78;4932496;29;20119;-69
2023/12/20 07:45:15;;;;;;;4.68;1.10;;;;;;;8.58;98.47;99864.38;4931885;29;20042;-68
2023/12/20 07:47:40;;;;;;;0.82;0.80;;;;;;;8.51;98.13;99858.13;4932977;29;20023;-68
2023/12/20 07:50:06;;;;;;;0.75;0.60;;;;;;;8.65;97.74;99859.09;4935078;29;20051;-69
2023/12/20 07:52:32;;;;;;;5.63;0.82;;;;;;;8.65;97.92;99863.69;4933356;29;20035;-69
2023/12/20 07:54:57;;;;;;;0.57;0.57;;;;;;;8.71;97.38;99857.66;4948227;29;20070;-69
2023/12/20 07:57:23;;;;;;;0.68;0.68;;;;;;;8.49;98.13;99871.91;4934741;29;20038;-69
2023/12/20 07:59:49;;;;;;;0.47;0.47;;;;;;;8.61;98.49;99855.59;4931593;29;20039;-69
2023/12/20 08:02:15;;;;;;;0.77;0.60;;;;;;;8.63;97.96;99861.34;4933741;29;20040;-69
2023/12/20 08:04:40;;;;;;;2.20;0.73;;;;;;;8.89;96.50;99849.84;4933511;29;20107;-69
2023/12/20 08:07:06;;;;;;;5.43;0.73;;;;;;;8.78;97.21;99849.72;4931926;29;20066;-69
2023/12/20 08:09:33;;;;;;;0.63;0.63;;;;;;;8.69;98.19;99859.16;4930532;29;20039;-69
2023/12/20 08:11:59;;;;;;;2.00;0.73;;;;;;;8.82;96.87;99849.75;4948040;28;20095;-69
2023/12/20 08:14:25;;;;;;;1.30;1.05;;;;;;;8.80;97.58;99850.13;4934425;29;20086;-69
2023/12/20 08:16:51;;;;;;;5.00;1.00;;;;;;;8.89;96.56;99847.94;4934038;29;20535;-69
2023/12/20 08:19:16;;;;;;;0.57;0.55;;;;;;;8.80;96.92;99850.13;4935061;29;20055;-69
2023/12/20 08:21:42;;;;;;;1.50;0.95;;;;;;;8.76;98.06;99832.41;4934216;29;20028;-69
2023/12/20 08:24:08;;;;;;;0.65;0.65;;;;;;;8.89;96.57;99833.75;4934507;29;20079;-68
2023/12/20 08:26:33;;;;;;;3.40;0.82;;;;;;;8.96;96.31;99810.44;4932484;29;20085;-69
2023/12/20 08:28:59;;;;;;;3.03;0.68;;;;;;;8.97;95.42;99812.00;4945856;29;20067;-69
2023/12/20 08:31:24;;;;;;;0.85;0.85;;;;;;;8.85;97.20;99817.59;4929860;29;20038;-69
2023/12/20 08:33:50;;;;;;;1.42;0.80;;;;;;;8.98;96.05;99808.16;4931313;29;20079;-68
2023/12/20 08:36:17;;;;;;;1.88;0.80;;;;;;;8.76;97.17;99811.72;4933155;29;20035;-69
2023/12/20 08:38:43;;;;;;;4.43;0.98;;;;;;;8.72;96.67;99810.91;4949061;29;20510;-69
2023/12/20 08:41:08;;;;;;;0.68;0.47;;;;;;;8.72;97.18;99800.16;4948873;29;20071;-68
2023/12/20 08:43:35;;;;;;;2.47;0.75;;;;;;;8.90;96.59;99798.47;4936059;28;20042;-69
2023/12/20 08:46:00;;;;;;;2.15;0.60;;;;;;;8.90;97.49;99790.41;4934473;29;20043;-69
2023/12/20 08:48:26;;;;;;;0.50;0.50;;;;;;;9.01;96.33;99782.50;4947931;29;20094;-68
2023/12/20 08:50:52;;;;;;;1.58;0.98;;;;;;;8.57;97.56;99790.38;4948856;29;20134;-69
2023/12/20 08:53:18;;;;;;;0.70;0.68;;;;;;;8.76;98.60;99798.31;4932306;29;20384;-69
2023/12/20 08:55:44;;;;;;;0.82;0.70;;;;;;;8.97;97.30;99779.00;4933040;29;20447;-69
2023/12/20 08:58:10;;;;;;;5.43;0.52;;;;;;;9.07;95.95;99781.06;4931230;28;20119;-68
2023/12/20 09:00:35;;;;;;;1.48;0.73;;;;;;;9.20;95.17;99776.97;4932358;29;20039;-68
2023/12/20 09:03:02;;;;;;;5.57;0.80;;;;;;;9.28;95.19;99783.97;4932046;29;20031;-69
2023/12/20 09:05:28;;;;;;;1.83;0.82;;;;;;;8.92;97.04;99777.41;4931756;29;20050;-69
2023/12/20 09:07:53;;;;;;;1.67;0.98;;;;;;;9.09;96.90;99774.19;4960965;28;20543;-69
2023/12/20 09:10:22;;;;;;;0.40;0.40;;;;;;;9.00;97.35;99768.31;4931525;29;20106;-69
2023/12/20 09:12:49;;;;;;;3.38;0.85;;;;;;;9.02;97.80;99775.97;4931802;29;20643;-69
2023/12/20 09:15:15;;;;;;;3.00;0.52;;;;;;;9.06;97.05;99784.84;4931296;29;20071;-68
2023/12/20 09:17:41;;;;;;;1.75;0.80;;;;;;;9.10;96.91;99783.78;4932443;29;20055;-68
2023/12/20 09:20:08;;;;;;;3.78;1.02;;;;;;;8.89;98.50;99767.41;4930263;29;20039;-69
2023/12/20 09:22:33;;;;;;;1.40;0.75;;;;;;;8.95;99.31;99759.81;4929900;29;20031;-69
2023/12/20 09:24:59;;;;;;;1.05;0.45;;;;;;;8.96;98.10;99772.09;4946549;29;20066;-69
2023/12/20 09:27:26;;;;;;;0.95;0.55;;;;;;;8.93;98.67;99765.53;4947185;29;20036;-69
2023/12/20 09:29:51;;;;;;;0.70;0.60;;;;;;;8.58;100.00;99786.53;4933018;28;20118;-69
2023/12/20 09:32:17;;;;;;;1.75;0.50;;;;;;;8.64;100.00;99805.78;4930583;29;20087;-69
2023/12/20 09:34:42;;;;;;;1.05;1.05;;;;;;;8.72;100.00;99799.38;4930577;29;20118;-69
2023/12/20 09:37:08;;;;;;;1.90;0.68;;;;;;;8.77;99.24;99799.06;4930590;29;20050;-69
2023/12/20 09:39:33;;;;;;;2.28;0.40;;;;;;;8.70;100.00;99797.06;4932815;29;20047;-68
2023/12/20 09:42:06;;;;;;;1.35;0.50;;;;;;;7.95;100.00;99791.69;4945167;28;20119;-68
2023/12/20 09:44:32;;;;;;;0.20;0.20;;;;;;;8.09;100.00;99793.84;4926596;29;20050;-68
2023/12/20 09:47:01;;;;;;;0.30;0.30;;;;;;;8.21;100.00;99791.72;4932570;29;20168;-69
2023/12/20 09:49:27;;;;;;;0.25;0.22;;;;;;;8.19;100.00;99777.91;4930096;29;20043;-69
2023/12/20 09:51:53;;;;;;;2.83;0.55;;;;;;;8.29;100.00;99791.84;4930049;29;20031;-69
2023/12/20 09:54:20;;;;;;;1.75;0.60;;;;;;;8.46;100.00;99815.50;4944875;28;20043;-69
2023/12/20 09:56:46;;;;;;;2.40;0.45;;;;;;;8.39;100.00;99804.66;4931768;29;20055;-69
2023/12/20 09:59:12;;;;;;;0.30;0.30;;;;;;;8.45;100.00;99798.63;4929760;29;20052;-68
2023/12/20 10:01:41;;;;;;;0.65;0.50;;;;;;;8.68;100.00;99796.66;4930055;29;20118;-69
2023/12/20 10:04:10;;;;;;;0.60;0.60;;;;;;;8.43;100.00;99789.38;4947078;29;20054;-68
2023/12/20 10:06:36;;;;;;;1.25;0.50;;;;;;;8.53;100.00;99794.91;4933192;29;20039;-69
2023/12/20 10:09:02;;;;;;;0.65;0.57;;;;;;;8.11;100.00;99784.28;4932581;29;20047;-69
2023/12/20 10:11:28;;;;;;;0.25;0.25;;;;;;;8.06;100.00;99784.59;4930207;29;20043;-68
2023/12/20 10:14:01;;;;;;;0.45;0.45;;;;;;;8.21;100.00;99781.00;4931028;29;20028;-69
2023/12/20 10:16:26;;;;;;;0.22;0.22;;;;;;;8.04;100.00;99780.72;4929545;29;20738;-69
2023/12/20 10:18:56;;;;;;;0.38;0.30;;;;;;;8.08;100.00;99766.25;4946812;29;20040;-69
2023/12/20 10:21:28;;;;;;;1.65;1.10;;;;;;;8.28;100.00;99766.19;4932342;29;20735;-69
2023/12/20 10:23:54;;;;;;;0.30;0.30;;;;;;;8.15;98.81;99755.63;4931539;29;20122;-69
2023/12/20 10:26:24;;;;;;;1.27;0.55;;;;;;;8.22;98.40;99781.78;4932238;29;20495;-68
2023/12/20 10:28:51;;;;;;;0.52;0.30;;;;;;;7.95;98.92;99807.00;4945757;29;20398;-68
2023/12/20 10:31:30;;;;;;;0.40;0.40;;;;;;;7.77;99.94;99811.28;4946237;29;20028;-69
2023/12/20 10:33:59;;;;;;;0.20;0.20;;;;;;;8.01;99.80;99802.91;4928791;29;20046;-68
2023/12/20 10:36:26;;;;;;;0.22;0.22;;;;;;;8.17;97.36;99806.97;4928476;29;20031;-69
2023/12/20 10:38:53;;;;;;;0.30;0.30;;;;;;;8.16;97.39;99804.66;4930027;29;20082;-69
2023/12/20 10:41:25;;;;;;;0.25;0.25;;;;;;;8.03;97.39;99800.63;4943369;29;20019;-68
2023/12/20 10:43:51;;;;;;;;;;;;;;;7.81;98.15;99793.34;4929113;29;20050;-68
2023/12/20 10:46:19;;;;;;;1.13;0.30;;;;;;;8.16;98.08;99767.13;4931403;29;19919;-69
2023/12/20 10:48:46;;;;;;;0.55;0.40;;;;;;;8.13;96.49;99773.19;4941816;29;20023;-69
2023/12/20 10:51:13;;;;;;;7.03;0.38;;;;;;;8.32;95.67;99775.06;4930553;29;20407;-69
2023/12/20 10:53:40;;;;;;;5.28;0.40;;;;;;;8.10;97.33;99773.91;4929360;29;20530;-68
2023/12/20 10:56:07;;;;;;;0.57;0.57;;;;;;;8.21;97.18;99769.50;4929897;29;20038;-69
2023/12/20 10:58:34;;;;;;;0.30;0.30;;;;;;;8.03;98.16;99773.81;4962187;28;20039;-69
2023/12/20 11:01:03;;;;;;;0.20;0.20;;;;;;;8.11;97.30;99764.72;4933425;29;20071;-69
2023/12/20 11:03:34;;;;;;;0.50;0.25;;;;;;;8.39;96.15;99762.50;4930272;29;20024;-69
2023/12/20 11:06:08;;;;;;;0.40;0.40;;;;;;;8.48;95.91;99775.69;4933168;29;20511;-68
2023/12/20 11:08:46;;;;;;;0.47;0.40;;;;;;;8.47;95.27;99774.13;4931457;29;20036;-68
2023/12/20 11:11:21;;;;;;;0.20;0.20;;;;;;;8.44;93.99;99777.53;4934054;29;20043;-69
2023/12/20 11:14:00;;;;;;;0.43;0.28;;;;;;;8.46;94.45;99764.53;4929477;29;20114;-69
2023/12/20 11:16:26;;;;;;;0.77;0.30;;;;;;;8.42;94.63;99774.44;4944512;29;21662;-68
2023/12/20 11:18:52;;;;;;;1.70;0.47;;;;;;;8.34;95.16;99757.47;4929998;29;20504;-69
2023/12/20 11:21:17;;;;;;;1.88;0.50;;;;;;;8.09;95.79;99761.66;4948757;28;20423;-69
2023/12/20 11:23:43;;;;;;;1.40;0.70;;;;;;;8.21;96.46;99769.50;4929912;29;20038;-69
2023/12/20 11:26:08;;;;;;;0.75;0.60;;;;;;;8.16;97.13;99761.75;4937587;29;20028;-69
2023/12/20 11:28:34;;;;;;;2.38;0.45;;;;;;;8.05;96.52;99774.97;4929611;29;20040;-69
2023/12/20 11:31:01;;;;;;;0.40;0.40;;;;;;;7.73;100.00;99792.47;4933982;29;20043;-69